createdAt,value
2019-03-29T00:01:37.206Z,50.04
2019-03-29T00:04:03.953Z,50.19
2019-03-29T00:06:30.702Z,50.16
2019-03-29T00:08:57.503Z,50.21
2019-03-29T00:11:24.241Z,50.48
2019-03-29T00:13:50.993Z,50.26
2019-03-29T00:16:17.749Z,50.29
2019-03-29T00:18:44.483Z,50.39
2019-03-29T00:21:11.301Z,50.37
2019-03-29T00:23:38.033Z,50.61
2019-03-29T00:26:04.779Z,50.57
2019-03-29T00:28:31.569Z,50.83
2019-03-29T00:30:58.293Z,50.79
2019-03-29T00:33:25.006Z,50.82
2019-03-29T00:35:51.996Z,50.75
2019-03-29T00:38:18.744Z,50.81
2019-03-29T00:40:45.463Z,51.02
2019-03-29T00:43:12.239Z,50.89
2019-03-29T00:45:38.973Z,50.83
2019-03-29T00:48:05.780Z,50.81
2019-03-29T00:50:33.050Z,50.90
2019-03-29T00:52:59.853Z,50.77
2019-03-29T00:55:26.618Z,50.69
2019-03-29T00:57:53.333Z,50.61
2019-03-29T01:00:20.262Z,50.79
2019-03-29T01:02:47.192Z,50.75
2019-03-29T01:05:14.044Z,50.95
2019-03-29T01:07:40.778Z,51.40
2019-03-29T01:10:08.599Z,51.53
2019-03-29T01:12:35.342Z,51.53
2019-03-29T01:15:04.752Z,51.30
2019-03-29T01:17:31.518Z,50.97
2019-03-29T01:19:58.230Z,50.85
2019-03-29T01:22:24.962Z,50.64
2019-03-29T01:24:51.784Z,50.88
2019-03-29T01:27:19.197Z,51.21
2019-03-29T01:29:46.229Z,51.42
2019-03-29T01:32:12.954Z,51.51
2019-03-29T01:34:39.698Z,51.35
2019-03-29T01:37:06.483Z,51.33
2019-03-29T01:39:33.220Z,51.35
2019-03-29T01:42:00.019Z,51.31
2019-03-29T01:44:27.929Z,51.47
2019-03-29T01:46:54.814Z,51.95
2019-03-29T01:49:21.615Z,51.94
2019-03-29T01:51:48.343Z,51.73
2019-03-29T01:54:15.087Z,51.70
2019-03-29T01:56:41.920Z,51.96
2019-03-29T01:59:08.653Z,51.96
2019-03-29T02:01:35.391Z,51.89
2019-03-29T02:04:05.516Z,52.15
2019-03-29T02:06:30.765Z,52.04
2019-03-29T02:08:57.510Z,51.90
2019-03-29T02:11:24.323Z,52.08
2019-03-29T02:13:51.261Z,51.97
2019-03-29T02:16:18.692Z,52.08
2019-03-29T02:18:45.495Z,52.04
2019-03-29T02:21:12.523Z,52.10
2019-03-29T02:23:39.275Z,52.22
2019-03-29T02:26:06.084Z,52.25
2019-03-29T02:28:32.805Z,52.20
2019-03-29T02:30:59.776Z,52.27
2019-03-29T02:33:26.940Z,52.16
2019-03-29T02:35:53.780Z,52.06
2019-03-29T02:38:20.566Z,52.35
2019-03-29T02:40:47.299Z,52.64
2019-03-29T02:43:14.349Z,52.75
2019-03-29T02:45:41.143Z,52.93
2019-03-29T02:48:08.380Z,52.61
2019-03-29T02:50:36.661Z,52.62
2019-03-29T02:53:03.638Z,52.93
2019-03-29T02:55:30.357Z,52.96
2019-03-29T02:57:57.111Z,52.71
2019-03-29T03:00:23.877Z,52.59
2019-03-29T03:02:50.621Z,52.78
2019-03-29T03:05:17.510Z,52.62
2019-03-29T03:07:44.652Z,52.75
2019-03-29T03:10:12.568Z,52.93
2019-03-29T03:12:39.343Z,53.05
2019-03-29T03:15:08.478Z,53.20
2019-03-29T03:17:35.918Z,53.13
2019-03-29T03:20:07.853Z,53.23
2019-03-29T03:22:34.600Z,53.38
2019-03-29T03:25:01.396Z,53.40
2019-03-29T03:27:28.140Z,53.39
2019-03-29T03:29:57.867Z,53.21
2019-03-29T03:32:24.652Z,53.44
2019-03-29T03:34:51.509Z,53.12
2019-03-29T03:37:18.372Z,52.85
2019-03-29T03:39:45.118Z,52.91
2019-03-29T03:42:12.734Z,53.04
2019-03-29T03:44:39.522Z,53.23
2019-03-29T03:47:06.260Z,53.64
2019-03-29T03:49:33.002Z,53.76
2019-03-29T03:51:59.992Z,53.74
2019-03-29T03:54:26.828Z,53.76
2019-03-29T03:56:54.168Z,53.29
2019-03-29T03:59:23.886Z,53.15
2019-03-29T04:01:50.620Z,53.30
2019-03-29T04:04:17.408Z,53.77
2019-03-29T04:06:44.165Z,53.67
2019-03-29T04:09:10.908Z,53.81
2019-03-29T04:11:37.783Z,53.88
2019-03-29T04:14:04.594Z,53.69
2019-03-29T04:16:31.361Z,53.59
2019-03-29T04:18:58.251Z,53.60
2019-03-29T04:21:25.002Z,53.67
2019-03-29T04:23:51.769Z,53.40
2019-03-29T04:26:18.658Z,53.44
2019-03-29T04:28:56.999Z,53.45
2019-03-29T04:31:14.025Z,53.38
2019-03-29T04:33:40.813Z,53.53
2019-03-29T04:36:07.553Z,53.55
2019-03-29T04:38:34.279Z,53.75
2019-03-29T04:41:02.153Z,53.87
2019-03-29T04:43:28.877Z,53.84
2019-03-29T04:45:56.908Z,54.07
2019-03-29T04:48:23.646Z,54.13
2019-03-29T04:50:50.381Z,54.07
2019-03-29T04:53:19.734Z,54.13
2019-03-29T04:55:46.406Z,54.40
2019-03-29T04:58:13.243Z,54.59
2019-03-29T05:00:40.033Z,54.40
2019-03-29T05:03:06.768Z,54.16
2019-03-29T05:05:33.559Z,54.34
2019-03-29T05:08:00.358Z,54.64
2019-03-29T05:10:27.100Z,54.43
2019-03-29T05:12:53.830Z,54.20
2019-03-29T05:15:20.595Z,54.24
2019-03-29T05:17:47.341Z,54.05
2019-03-29T05:20:14.077Z,54.15
2019-03-29T05:22:40.869Z,54.66
2019-03-29T05:25:27.366Z,54.65
2019-03-29T05:27:54.186Z,54.74
2019-03-29T05:30:20.903Z,54.83
2019-03-29T05:32:47.647Z,54.67
2019-03-29T05:35:14.440Z,54.67
2019-03-29T05:37:41.178Z,54.72
2019-03-29T05:40:08.736Z,54.74
2019-03-29T05:42:35.477Z,54.85
2019-03-29T05:45:05.432Z,54.60
2019-03-29T05:47:32.215Z,54.92
2019-03-29T05:49:58.959Z,54.83
2019-03-29T05:52:25.739Z,54.59
2019-03-29T05:54:52.471Z,54.68
2019-03-29T05:57:19.201Z,54.89
2019-03-29T05:59:46.096Z,54.87
2019-03-29T06:02:12.832Z,54.80
2019-03-29T06:04:39.575Z,54.81
2019-03-29T06:07:06.382Z,54.81
2019-03-29T06:09:34.968Z,54.59
2019-03-29T06:12:01.711Z,54.45
2019-03-29T06:14:28.469Z,54.67
2019-03-29T06:16:55.240Z,54.89
2019-03-29T06:19:22.010Z,54.53
2019-03-29T06:21:48.737Z,54.84
2019-03-29T06:24:15.488Z,54.74
2019-03-29T06:26:42.265Z,54.78
2019-03-29T06:29:09.013Z,54.92
2019-03-29T06:31:35.820Z,54.68
2019-03-29T06:34:02.584Z,54.19
2019-03-29T06:36:30.724Z,54.39
2019-03-29T06:38:59.320Z,54.37
2019-03-29T06:41:26.069Z,54.05
2019-03-29T06:43:52.786Z,53.86
2019-03-29T06:46:19.615Z,53.43
2019-03-29T06:48:46.361Z,52.81
2019-03-29T06:51:13.116Z,52.28
2019-03-29T06:53:39.934Z,51.95
2019-03-29T06:56:06.733Z,51.86
2019-03-29T06:58:33.424Z,52.05
2019-03-29T07:01:00.298Z,51.65
2019-03-29T07:03:27.042Z,51.38
2019-03-29T07:05:53.882Z,51.38
2019-03-29T07:08:20.696Z,51.62
2019-03-29T07:10:47.478Z,51.97
2019-03-29T07:13:14.278Z,51.79
2019-03-29T07:15:41.021Z,51.48
2019-03-29T07:18:07.752Z,50.47
2019-03-29T07:20:34.550Z,50.25
2019-03-29T07:23:01.301Z,50.13
2019-03-29T07:25:28.092Z,50.12
2019-03-29T07:27:54.839Z,50.51
2019-03-29T07:30:21.572Z,50.11
2019-03-29T07:32:48.373Z,50.18
2019-03-29T07:35:15.105Z,49.73
2019-03-29T07:37:41.918Z,49.33
2019-03-29T07:40:09.149Z,49.07
2019-03-29T07:42:35.907Z,48.71
2019-03-29T07:45:05.445Z,48.43
2019-03-29T07:47:32.199Z,48.10
2019-03-29T07:49:58.947Z,47.42
2019-03-29T07:52:25.734Z,46.70
2019-03-29T07:54:52.486Z,46.52
2019-03-29T07:57:19.278Z,46.25
2019-03-29T07:59:46.030Z,46.12
2019-03-29T08:02:12.764Z,46.07
2019-03-29T08:04:39.586Z,45.95
2019-03-29T08:07:06.643Z,45.95
2019-03-29T08:09:33.529Z,45.62
2019-03-29T08:12:00.315Z,46.44
2019-03-29T08:14:27.062Z,46.07
2019-03-29T08:16:53.888Z,45.48
2019-03-29T08:19:20.626Z,45.71
2019-03-29T08:21:47.367Z,45.09
2019-03-29T08:24:14.161Z,44.91
2019-03-29T08:26:41.025Z,44.86
2019-03-29T08:29:07.824Z,44.49
2019-03-29T08:31:34.576Z,44.44
2019-03-29T08:34:01.511Z,43.69
2019-03-29T08:36:28.322Z,43.13
2019-03-29T08:38:55.116Z,43.02
2019-03-29T08:41:21.925Z,43.05
2019-03-29T08:43:48.686Z,42.88
2019-03-29T08:46:15.420Z,41.93
2019-03-29T08:48:42.260Z,41.39
2019-03-29T08:51:09.021Z,40.82
2019-03-29T08:53:35.787Z,40.06
2019-03-29T08:56:02.648Z,40.27
2019-03-29T08:58:29.401Z,40.04
2019-03-29T09:00:56.129Z,39.35
2019-03-29T09:03:23.937Z,39.40
2019-03-29T09:05:50.872Z,39.23
2019-03-29T09:08:17.627Z,39.79
2019-03-29T09:10:44.452Z,39.79
2019-03-29T09:13:11.199Z,38.47
2019-03-29T09:15:38.017Z,38.10
2019-03-29T09:18:04.772Z,38.66
2019-03-29T09:20:34.294Z,38.14
2019-03-29T09:23:00.136Z,37.97
2019-03-29T09:25:26.893Z,38.46
2019-03-29T09:27:53.706Z,38.58
2019-03-29T09:30:20.544Z,38.77
2019-03-29T09:32:50.905Z,37.74
2019-03-29T09:35:15.897Z,37.97
2019-03-29T09:37:42.640Z,38.59
2019-03-29T09:40:09.583Z,38.30
2019-03-29T09:42:36.491Z,38.00
2019-03-29T09:45:06.246Z,37.24
2019-03-29T09:47:38.564Z,36.21
2019-03-29T09:50:03.272Z,35.84
2019-03-29T09:52:30.018Z,36.62
2019-03-29T09:54:56.823Z,35.88
2019-03-29T09:57:36.997Z,36.27
2019-03-29T09:59:52.155Z,36.93
2019-03-29T10:02:18.984Z,34.67
2019-03-29T10:04:45.714Z,35.81
2019-03-29T10:07:12.491Z,35.82
2019-03-29T10:09:39.362Z,34.54
2019-03-29T10:12:06.157Z,34.96
2019-03-29T10:14:33.824Z,34.90
2019-03-29T10:17:00.625Z,34.46
2019-03-29T10:19:27.377Z,34.64
2019-03-29T10:21:54.131Z,34.56
2019-03-29T10:24:20.926Z,35.10
2019-03-29T10:26:47.669Z,35.70
2019-03-29T10:29:14.480Z,34.71
2019-03-29T10:31:41.301Z,36.49
2019-03-29T10:34:08.042Z,34.11
2019-03-29T10:36:34.808Z,32.67
2019-03-29T10:39:01.673Z,33.01
2019-03-29T10:41:28.449Z,30.59
2019-03-29T10:43:55.248Z,28.75
2019-03-29T10:46:21.987Z,27.23
2019-03-29T10:48:48.725Z,25.17
2019-03-29T10:51:15.554Z,24.84
2019-03-29T10:53:42.313Z,23.80
2019-03-29T10:56:09.067Z,22.44
2019-03-29T10:58:35.867Z,20.92
2019-03-29T11:01:03.124Z,20.90
2019-03-29T11:03:29.929Z,20.87
2019-03-29T11:05:56.738Z,20.52
2019-03-29T11:08:23.494Z,20.58
2019-03-29T11:10:50.246Z,20.00
2019-03-29T11:13:17.091Z,20.43
2019-03-29T11:15:43.852Z,19.84
2019-03-29T11:18:11.245Z,19.81
2019-03-29T11:20:38.052Z,19.14
2019-03-29T11:23:04.826Z,19.27
2019-03-29T11:25:31.645Z,20.43
2019-03-29T11:27:58.368Z,19.34
2019-03-29T11:30:25.136Z,19.88
2019-03-29T11:32:51.941Z,19.43
2019-03-29T11:35:18.684Z,19.55
2019-03-29T11:37:45.448Z,19.35
2019-03-29T11:40:12.687Z,19.71
2019-03-29T11:42:39.444Z,18.97
2019-03-29T11:45:08.263Z,19.43
2019-03-29T11:47:35.081Z,19.37
2019-03-29T11:50:02.620Z,18.69
2019-03-29T11:52:29.379Z,19.13
2019-03-29T11:54:56.278Z,19.38
2019-03-29T11:57:23.049Z,19.36
2019-03-29T11:59:49.888Z,19.38
2019-03-29T12:02:30.184Z,19.27
2019-03-29T12:04:45.269Z,18.79
2019-03-29T12:07:12.304Z,18.61
2019-03-29T12:09:39.054Z,18.34
2019-03-29T12:12:05.802Z,20.00
2019-03-29T12:14:32.672Z,19.44
2019-03-29T12:17:00.123Z,19.03
2019-03-29T12:19:26.880Z,18.65
2019-03-29T12:21:53.673Z,18.48
2019-03-29T12:24:20.501Z,19.06
2019-03-29T12:26:47.324Z,19.63
2019-03-29T12:29:14.049Z,20.08
2019-03-29T12:31:40.806Z,20.33
2019-03-29T12:34:07.648Z,19.41
2019-03-29T12:36:34.517Z,20.25
2019-03-29T12:39:05.754Z,20.05
2019-03-29T12:41:32.548Z,19.47
2019-03-29T12:43:59.286Z,19.00
2019-03-29T12:46:26.034Z,19.48
2019-03-29T12:48:52.812Z,19.35
2019-03-29T12:51:19.578Z,18.49
2019-03-29T12:53:46.381Z,18.98
2019-03-29T12:56:13.128Z,19.09
2019-03-29T12:58:39.876Z,19.69
2019-03-29T13:01:06.701Z,19.18
2019-03-29T13:03:33.443Z,18.45
2019-03-29T13:06:00.230Z,19.41
2019-03-29T13:08:27.012Z,19.38
2019-03-29T13:10:54.090Z,19.30
2019-03-29T13:13:20.913Z,19.97
2019-03-29T13:15:47.712Z,18.28
2019-03-29T13:18:14.655Z,19.17
2019-03-29T13:20:41.457Z,19.92
2019-03-29T13:23:08.191Z,18.95
2019-03-29T13:25:35.003Z,19.11
2019-03-29T13:28:01.777Z,19.05
2019-03-29T13:30:28.537Z,18.26
2019-03-29T13:32:55.336Z,19.22
2019-03-29T13:35:22.107Z,19.32
2019-03-29T13:37:48.879Z,18.68
2019-03-29T13:40:15.770Z,20.26
2019-03-29T13:42:42.536Z,23.33
2019-03-29T13:45:09.328Z,19.59
2019-03-29T13:47:36.601Z,19.51
2019-03-29T13:50:07.515Z,20.64
2019-03-29T13:52:34.264Z,19.91
2019-03-29T13:55:01.054Z,18.43
2019-03-29T13:57:27.845Z,19.90
2019-03-29T13:59:54.782Z,19.53
2019-03-29T14:02:21.545Z,19.43
2019-03-29T14:04:48.297Z,19.13
2019-03-29T14:07:15.029Z,19.27
2019-03-29T14:09:41.889Z,19.86
2019-03-29T14:12:08.643Z,19.26
2019-03-29T14:14:38.468Z,21.09
2019-03-29T14:17:03.999Z,22.44
2019-03-29T14:19:30.772Z,23.07
2019-03-29T14:21:57.635Z,20.12
2019-03-29T14:24:24.411Z,20.18
2019-03-29T14:26:51.132Z,20.27
2019-03-29T14:29:17.945Z,22.36
2019-03-29T14:31:44.710Z,23.09
2019-03-29T14:34:11.433Z,23.56
2019-03-29T14:36:38.238Z,24.15
2019-03-29T14:39:05.890Z,24.50
2019-03-29T14:41:34.618Z,23.66
2019-03-29T14:44:01.423Z,24.95
2019-03-29T14:46:28.194Z,25.64
2019-03-29T14:48:55.104Z,25.75
2019-03-29T14:51:21.918Z,26.05
2019-03-29T14:53:48.663Z,23.78
2019-03-29T14:56:15.475Z,25.40
2019-03-29T14:58:42.220Z,23.62
2019-03-29T15:01:09.125Z,25.91
2019-03-29T15:03:35.898Z,24.98
2019-03-29T15:06:02.872Z,24.03
2019-03-29T15:08:29.970Z,24.87
2019-03-29T15:11:00.048Z,22.83
2019-03-29T15:13:26.799Z,23.56
2019-03-29T15:15:53.867Z,23.66
2019-03-29T15:18:21.025Z,24.00
2019-03-29T15:20:53.574Z,24.45
2019-03-29T15:23:16.592Z,24.97
2019-03-29T15:25:43.369Z,25.47
2019-03-29T15:28:10.153Z,25.62
2019-03-29T15:30:37.061Z,25.29
2019-03-29T15:33:03.842Z,25.42
2019-03-29T15:35:30.627Z,25.35
2019-03-29T15:37:57.485Z,23.90
2019-03-29T15:40:24.332Z,23.53
2019-03-29T15:42:51.081Z,23.74
2019-03-29T15:45:20.712Z,24.27
2019-03-29T15:47:46.683Z,24.60
2019-03-29T15:50:13.583Z,24.66
2019-03-29T15:52:40.446Z,25.04
2019-03-29T15:55:07.657Z,23.97
2019-03-29T15:57:34.546Z,24.19
2019-03-29T16:00:01.343Z,23.69
2019-03-29T16:02:28.079Z,23.63
2019-03-29T16:04:55.094Z,24.16
2019-03-29T16:07:21.986Z,24.92
2019-03-29T16:09:48.718Z,24.99
2019-03-29T16:12:15.528Z,25.21
2019-03-29T16:14:42.293Z,25.41
2019-03-29T16:17:09.210Z,25.83
2019-03-29T16:19:36.472Z,26.33
2019-03-29T16:22:05.908Z,26.96
2019-03-29T16:24:31.881Z,27.54
2019-03-29T16:26:58.704Z,28.80
2019-03-29T16:29:25.493Z,29.50
2019-03-29T16:31:53.633Z,29.21
2019-03-29T16:34:20.320Z,29.81
2019-03-29T16:36:47.178Z,30.74
2019-03-29T16:39:14.025Z,31.27
2019-03-29T16:41:40.803Z,31.79
2019-03-29T16:44:07.657Z,32.46
2019-03-29T16:46:37.609Z,32.77
2019-03-29T16:49:04.348Z,32.22
2019-03-29T16:51:31.667Z,32.98
2019-03-29T16:53:58.444Z,33.48
2019-03-29T16:56:25.293Z,33.96
2019-03-29T16:58:52.082Z,34.42
2019-03-29T17:01:18.861Z,34.72
2019-03-29T17:03:45.710Z,34.97
2019-03-29T17:06:12.512Z,35.54
2019-03-29T17:08:39.364Z,35.90
2019-03-29T17:11:06.201Z,36.31
2019-03-29T17:13:32.985Z,36.16
2019-03-29T17:16:02.158Z,36.80
2019-03-29T17:18:29.414Z,36.79
2019-03-29T17:20:56.695Z,36.84
2019-03-29T17:23:23.504Z,36.76
2019-03-29T17:25:50.248Z,36.54
2019-03-29T17:28:16.991Z,36.87
2019-03-29T17:30:43.771Z,36.89
2019-03-29T17:33:10.512Z,36.69
2019-03-29T17:35:37.370Z,37.71
2019-03-29T17:38:04.590Z,38.13
2019-03-29T17:40:31.383Z,38.57
2019-03-29T17:42:58.311Z,38.66
2019-03-29T17:45:25.101Z,38.24
2019-03-29T17:47:51.854Z,38.39
2019-03-29T17:50:18.667Z,38.55
2019-03-29T17:52:45.463Z,38.78
2019-03-29T17:55:12.396Z,39.42
2019-03-29T17:57:39.128Z,39.36
2019-03-29T18:00:07.577Z,39.62
2019-03-29T18:02:34.439Z,39.86
2019-03-29T18:05:01.181Z,39.59
2019-03-29T18:07:27.964Z,39.11
2019-03-29T18:09:54.806Z,39.63
2019-03-29T18:12:21.538Z,39.61
2019-03-29T18:14:48.327Z,39.89
2019-03-29T18:17:15.092Z,40.11
2019-03-29T18:19:41.924Z,40.18
2019-03-29T18:22:08.738Z,40.30
2019-03-29T18:24:35.497Z,40.59
2019-03-29T18:27:02.293Z,40.76
2019-03-29T18:29:29.096Z,40.48
2019-03-29T18:31:55.967Z,40.26
2019-03-29T18:34:23.996Z,40.56
2019-03-29T18:36:52.685Z,40.88
2019-03-29T18:39:20.865Z,41.20
2019-03-29T18:41:47.664Z,41.68
2019-03-29T18:44:14.414Z,41.76
2019-03-29T18:46:44.767Z,41.30
2019-03-29T18:49:09.798Z,41.26
2019-03-29T18:51:36.541Z,41.26
2019-03-29T18:54:03.626Z,41.80
2019-03-29T18:56:30.470Z,41.92
2019-03-29T18:58:57.200Z,42.01
2019-03-29T19:01:25.855Z,42.19
2019-03-29T19:03:52.843Z,42.55
2019-03-29T19:06:19.627Z,42.73
2019-03-29T19:08:49.985Z,43.05
2019-03-29T19:11:16.732Z,42.25
2019-03-29T19:13:43.542Z,42.20
2019-03-29T19:16:10.325Z,42.34
2019-03-29T19:18:37.049Z,42.77
2019-03-29T19:21:03.991Z,43.03
2019-03-29T19:23:30.731Z,42.65
2019-03-29T19:25:57.506Z,43.48
2019-03-29T19:28:24.294Z,43.19
2019-03-29T19:30:51.069Z,43.04
2019-03-29T19:33:17.796Z,43.07
2019-03-29T19:35:44.610Z,43.39
2019-03-29T19:38:11.378Z,43.15
2019-03-29T19:40:38.260Z,42.91
2019-03-29T19:43:05.117Z,43.24
2019-03-29T19:45:34.287Z,43.61
2019-03-29T19:48:00.428Z,44.17
2019-03-29T19:50:27.215Z,44.15
2019-03-29T19:52:53.939Z,43.97
2019-03-29T19:55:20.761Z,43.83
2019-03-29T19:57:47.516Z,44.00
2019-03-29T20:00:14.882Z,44.27
2019-03-29T20:02:45.513Z,44.29
2019-03-29T20:05:24.884Z,43.91
2019-03-29T20:07:52.915Z,44.32
2019-03-29T20:10:19.702Z,44.37
2019-03-29T20:12:46.588Z,44.77
2019-03-29T20:15:13.399Z,45.00
2019-03-29T20:17:40.189Z,45.22
2019-03-29T20:20:07.047Z,45.39
2019-03-29T20:22:33.888Z,45.37
2019-03-29T20:25:00.665Z,45.33
2019-03-29T20:27:27.480Z,45.32
2019-03-29T20:29:54.250Z,45.47
2019-03-29T20:32:21.000Z,45.33
2019-03-29T20:34:47.808Z,45.40
2019-03-29T20:37:14.572Z,45.32
2019-03-29T20:39:41.386Z,45.47
2019-03-29T20:42:08.155Z,46.11
2019-03-29T20:44:34.936Z,46.13
2019-03-29T20:47:01.778Z,46.02
2019-03-29T20:49:28.543Z,46.05
2019-03-29T20:51:55.270Z,46.10
2019-03-29T20:54:22.111Z,46.23
2019-03-29T20:56:48.896Z,46.56
2019-03-29T20:59:15.640Z,46.68
2019-03-29T21:01:42.414Z,46.68
2019-03-29T21:04:09.197Z,46.84
2019-03-29T21:06:36.021Z,46.52
2019-03-29T21:09:06.000Z,46.65
2019-03-29T21:11:32.721Z,46.84
2019-03-29T21:13:59.536Z,47.22
2019-03-29T21:16:26.307Z,47.35
2019-03-29T21:18:53.149Z,47.45
2019-03-29T21:21:19.929Z,47.35
2019-03-29T21:23:47.360Z,47.32
2019-03-29T21:26:14.272Z,47.32
2019-03-29T21:28:41.051Z,47.09
2019-03-29T21:31:07.828Z,47.07
2019-03-29T21:33:34.676Z,47.11
2019-03-29T21:36:01.417Z,47.36
2019-03-29T21:38:28.192Z,47.45
2019-03-29T21:40:54.999Z,47.36
2019-03-29T21:43:21.739Z,47.40
2019-03-29T21:45:48.590Z,47.62
2019-03-29T21:48:28.762Z,47.60
2019-03-29T21:50:43.932Z,47.64
2019-03-29T21:53:10.775Z,47.73
2019-03-29T21:55:37.549Z,47.83
2019-03-29T21:58:04.335Z,47.58
2019-03-29T22:00:31.152Z,47.52
2019-03-29T22:02:57.933Z,48.07
2019-03-29T22:05:24.717Z,48.00
2019-03-29T22:07:51.473Z,48.29
2019-03-29T22:10:18.234Z,48.27
2019-03-29T22:12:45.062Z,48.36
2019-03-29T22:15:13.323Z,48.53
2019-03-29T22:17:40.112Z,48.40
2019-03-29T22:20:08.229Z,48.46
2019-03-29T22:22:35.020Z,48.56
2019-03-29T22:25:03.102Z,48.57
2019-03-29T22:27:29.905Z,48.43
2019-03-29T22:29:56.686Z,48.47
2019-03-29T22:32:23.504Z,48.78
2019-03-29T22:34:50.279Z,48.59
2019-03-29T22:37:17.126Z,48.49
2019-03-29T22:39:43.936Z,48.37
2019-03-29T22:42:10.743Z,48.48
2019-03-29T22:44:37.592Z,48.49
2019-03-29T22:47:04.387Z,48.35
2019-03-29T22:49:31.186Z,48.50
2019-03-29T22:51:58.116Z,48.44
2019-03-29T22:54:24.920Z,48.77
2019-03-29T22:56:51.696Z,48.70
2019-03-29T22:59:18.542Z,48.85
2019-03-29T23:01:46.242Z,48.76
2019-03-29T23:04:13.096Z,48.80
2019-03-29T23:06:39.885Z,48.83
2019-03-29T23:09:07.089Z,48.55
2019-03-29T23:11:34.248Z,48.68
2019-03-29T23:14:01.046Z,48.62
2019-03-29T23:16:30.393Z,48.75
2019-03-29T23:19:06.507Z,48.66
2019-03-29T23:21:25.053Z,48.58
2019-03-29T23:23:52.693Z,48.69
2019-03-29T23:26:19.563Z,48.63
2019-03-29T23:28:46.376Z,48.62
2019-03-29T23:31:13.146Z,48.62
2019-03-29T23:33:40.022Z,48.71
2019-03-29T23:36:06.813Z,48.72
2019-03-29T23:38:33.607Z,49.03
2019-03-29T23:41:00.442Z,49.07
2019-03-29T23:43:27.232Z,49.28
2019-03-29T23:45:54.076Z,49.39
2019-03-29T23:48:20.861Z,49.28
2019-03-29T23:50:47.648Z,49.39
2019-03-29T23:53:14.484Z,49.29
2019-03-29T23:55:41.280Z,49.40
2019-03-29T23:58:08.082Z,49.20
